sensor_id;sensor_type;location;lat;lon;timestamp;temperature;humidity
59025;DHT22;44806;48.008;13.666;2023-04-15T00:00:10;6.10;99.90
59025;DHT22;44806;48.008;13.666;2023-04-15T00:02:38;6.10;99.90
59025;DHT22;44806;48.008;13.666;2023-04-15T00:05:05;6.20;99.90
59025;DHT22;44806;48.008;13.666;2023-04-15T00:07:32;6.20;99.90
59025;DHT22;44806;48.008;13.666;2023-04-15T00:10:01;6.20;99.90
59025;DHT22;44806;48.008;13.666;2023-04-15T00:12:29;6.20;99.90
59025;DHT22;44806;48.008;13.666;2023-04-15T00:14:56;6.20;99.90
59025;DHT22;44806;48.008;13.666;2023-04-15T00:17:23;6.30;99.90
59025;DHT22;44806;48.008;13.666;2023-04-15T00:19:51;6.30;99.90
59025;DHT22;44806;48.008;13.666;2023-04-15T00:22:19;6.30;99.90
59025;DHT22;44806;48.008;13.666;2023-04-15T00:24:47;6.30;99.90
59025;DHT22;44806;48.008;13.666;2023-04-15T00:27:18;6.20;99.90
59025;DHT22;44806;48.008;13.666;2023-04-15T00:29:45;6.30;99.90
59025;DHT22;44806;48.008;13.666;2023-04-15T00:32:13;6.20;99.90
59025;DHT22;44806;48.008;13.666;2023-04-15T00:34:40;6.20;99.90
59025;DHT22;44806;48.008;13.666;2023-04-15T00:37:08;6.20;99.90
59025;DHT22;44806;48.008;13.666;2023-04-15T00:39:35;6.20;99.90
59025;DHT22;44806;48.008;13.666;2023-04-15T00:42:03;6.20;99.90
59025;DHT22;44806;48.008;13.666;2023-04-15T00:44:32;6.30;99.90
59025;DHT22;44806;48.008;13.666;2023-04-15T00:46:59;6.30;99.90
59025;DHT22;44806;48.008;13.666;2023-04-15T00:49:28;6.30;99.90
59025;DHT22;44806;48.008;13.666;2023-04-15T00:51:55;6.20;99.90
59025;DHT22;44806;48.008;13.666;2023-04-15T00:54:22;6.10;99.90
59025;DHT22;44806;48.008;13.666;2023-04-15T00:56:50;6.10;99.90
59025;DHT22;44806;48.008;13.666;2023-04-15T00:59:19;6.10;99.90
59025;DHT22;44806;48.008;13.666;2023-04-15T01:01:48;6.10;99.90
59025;DHT22;44806;48.008;13.666;2023-04-15T01:04:16;6.10;99.90
59025;DHT22;44806;48.008;13.666;2023-04-15T01:06:43;6.10;99.90
59025;DHT22;44806;48.008;13.666;2023-04-15T01:09:13;6.10;99.90
59025;DHT22;44806;48.008;13.666;2023-04-15T01:11:43;6.10;99.90
59025;DHT22;44806;48.008;13.666;2023-04-15T01:14:10;6.10;99.90
59025;DHT22;44806;48.008;13.666;2023-04-15T01:16:37;6.20;99.90
59025;DHT22;44806;48.008;13.666;2023-04-15T01:19:07;6.20;99.90
59025;DHT22;44806;48.008;13.666;2023-04-15T01:21:36;6.10;99.90
59025;DHT22;44806;48.008;13.666;2023-04-15T01:24:08;6.20;99.90
59025;DHT22;44806;48.008;13.666;2023-04-15T01:26:37;6.10;99.90
59025;DHT22;44806;48.008;13.666;2023-04-15T01:29:04;6.10;99.90
59025;DHT22;44806;48.008;13.666;2023-04-15T01:31:31;6.20;99.90
59025;DHT22;44806;48.008;13.666;2023-04-15T01:33:58;6.10;99.90
59025;DHT22;44806;48.008;13.666;2023-04-15T01:36:26;6.10;99.90
59025;DHT22;44806;48.008;13.666;2023-04-15T01:38:53;6.10;99.90
59025;DHT22;44806;48.008;13.666;2023-04-15T01:41:21;6.10;99.90
59025;DHT22;44806;48.008;13.666;2023-04-15T01:43:52;6.20;99.90
59025;DHT22;44806;48.008;13.666;2023-04-15T01:46:19;6.10;99.90
59025;DHT22;44806;48.008;13.666;2023-04-15T01:48:49;6.10;99.90
59025;DHT22;44806;48.008;13.666;2023-04-15T01:51:16;6.10;99.90
59025;DHT22;44806;48.008;13.666;2023-04-15T01:53:43;6.10;99.90
59025;DHT22;44806;48.008;13.666;2023-04-15T01:56:10;6.10;99.90
59025;DHT22;44806;48.008;13.666;2023-04-15T01:58:37;6.20;99.90
59025;DHT22;44806;48.008;13.666;2023-04-15T02:01:06;6.20;99.90
59025;DHT22;44806;48.008;13.666;2023-04-15T02:03:35;6.20;99.90
59025;DHT22;44806;48.008;13.666;2023-04-15T02:06:03;6.20;99.90
59025;DHT22;44806;48.008;13.666;2023-04-15T02:08:30;6.20;99.90
59025;DHT22;44806;48.008;13.666;2023-04-15T02:10:58;6.20;99.90
59025;DHT22;44806;48.008;13.666;2023-04-15T02:13:25;6.20;99.90
59025;DHT22;44806;48.008;13.666;2023-04-15T02:15:54;6.30;99.90
59025;DHT22;44806;48.008;13.666;2023-04-15T02:18:22;6.10;99.90
59025;DHT22;44806;48.008;13.666;2023-04-15T02:20:52;6.10;99.90
59025;DHT22;44806;48.008;13.666;2023-04-15T02:23:19;6.20;99.90
59025;DHT22;44806;48.008;13.666;2023-04-15T02:25:46;6.20;99.90
59025;DHT22;44806;48.008;13.666;2023-04-15T02:28:13;6.10;99.90
59025;DHT22;44806;48.008;13.666;2023-04-15T02:30:40;6.10;99.90
59025;DHT22;44806;48.008;13.666;2023-04-15T02:33:07;6.10;99.90
59025;DHT22;44806;48.008;13.666;2023-04-15T02:35:36;6.20;99.90
59025;DHT22;44806;48.008;13.666;2023-04-15T02:38:06;6.20;99.90
59025;DHT22;44806;48.008;13.666;2023-04-15T02:40:33;6.20;99.90
59025;DHT22;44806;48.008;13.666;2023-04-15T02:43:00;6.20;99.90
59025;DHT22;44806;48.008;13.666;2023-04-15T02:45:27;6.20;99.90
59025;DHT22;44806;48.008;13.666;2023-04-15T02:47:54;6.10;99.90
59025;DHT22;44806;48.008;13.666;2023-04-15T02:50:21;6.10;99.90
59025;DHT22;44806;48.008;13.666;2023-04-15T02:52:50;6.10;99.90
59025;DHT22;44806;48.008;13.666;2023-04-15T02:55:17;6.10;99.90
59025;DHT22;44806;48.008;13.666;2023-04-15T02:57:44;6.10;99.90
59025;DHT22;44806;48.008;13.666;2023-04-15T03:00:12;6.20;99.90
59025;DHT22;44806;48.008;13.666;2023-04-15T03:02:39;6.10;99.90
59025;DHT22;44806;48.008;13.666;2023-04-15T03:05:10;6.20;99.90
59025;DHT22;44806;48.008;13.666;2023-04-15T03:07:37;6.10;99.90
59025;DHT22;44806;48.008;13.666;2023-04-15T03:10:07;6.10;99.90
59025;DHT22;44806;48.008;13.666;2023-04-15T03:12:35;6.10;99.90
59025;DHT22;44806;48.008;13.666;2023-04-15T03:15:02;6.00;99.90
59025;DHT22;44806;48.008;13.666;2023-04-15T03:17:29;6.10;99.90
59025;DHT22;44806;48.008;13.666;2023-04-15T03:19:55;6.10;99.90
59025;DHT22;44806;48.008;13.666;2023-04-15T03:22:22;6.10;99.90
59025;DHT22;44806;48.008;13.666;2023-04-15T03:24:49;6.10;99.90
59025;DHT22;44806;48.008;13.666;2023-04-15T03:27:17;6.10;99.90
59025;DHT22;44806;48.008;13.666;2023-04-15T03:29:44;6.10;99.90
59025;DHT22;44806;48.008;13.666;2023-04-15T03:32:11;6.00;99.90
59025;DHT22;44806;48.008;13.666;2023-04-15T03:34:39;6.00;99.90
59025;DHT22;44806;48.008;13.666;2023-04-15T03:37:06;6.00;99.90
59025;DHT22;44806;48.008;13.666;2023-04-15T03:39:34;6.00;99.90
59025;DHT22;44806;48.008;13.666;2023-04-15T03:42:01;6.10;99.90
59025;DHT22;44806;48.008;13.666;2023-04-15T03:44:29;6.10;99.90
59025;DHT22;44806;48.008;13.666;2023-04-15T03:46:57;6.10;99.90
59025;DHT22;44806;48.008;13.666;2023-04-15T03:49:24;6.00;99.90
59025;DHT22;44806;48.008;13.666;2023-04-15T03:51:51;6.00;99.90
59025;DHT22;44806;48.008;13.666;2023-04-15T03:54:18;6.00;99.90
59025;DHT22;44806;48.008;13.666;2023-04-15T03:56:44;6.10;99.90
59025;DHT22;44806;48.008;13.666;2023-04-15T03:59:11;6.10;99.90
59025;DHT22;44806;48.008;13.666;2023-04-15T04:01:40;6.10;99.90
59025;DHT22;44806;48.008;13.666;2023-04-15T04:04:06;6.00;99.90
59025;DHT22;44806;48.008;13.666;2023-04-15T04:06:33;6.00;99.90
59025;DHT22;44806;48.008;13.666;2023-04-15T04:09:00;6.00;99.90
59025;DHT22;44806;48.008;13.666;2023-04-15T04:11:27;6.00;99.90
59025;DHT22;44806;48.008;13.666;2023-04-15T04:13:54;6.00;99.90
59025;DHT22;44806;48.008;13.666;2023-04-15T04:16:21;6.00;99.90
59025;DHT22;44806;48.008;13.666;2023-04-15T04:18:49;6.00;99.90
59025;DHT22;44806;48.008;13.666;2023-04-15T04:21:16;6.00;99.90
59025;DHT22;44806;48.008;13.666;2023-04-15T04:23:43;6.00;99.90
59025;DHT22;44806;48.008;13.666;2023-04-15T04:26:10;6.00;99.90
59025;DHT22;44806;48.008;13.666;2023-04-15T04:28:37;6.00;99.90
59025;DHT22;44806;48.008;13.666;2023-04-15T04:31:05;6.00;99.90
59025;DHT22;44806;48.008;13.666;2023-04-15T04:33:32;6.10;99.90
59025;DHT22;44806;48.008;13.666;2023-04-15T04:36:00;6.10;99.90
59025;DHT22;44806;48.008;13.666;2023-04-15T04:38:27;6.10;99.90
59025;DHT22;44806;48.008;13.666;2023-04-15T04:40:54;6.10;99.90
59025;DHT22;44806;48.008;13.666;2023-04-15T04:43:21;6.10;99.90
59025;DHT22;44806;48.008;13.666;2023-04-15T04:45:48;6.00;99.90
59025;DHT22;44806;48.008;13.666;2023-04-15T04:48:15;6.00;99.90
59025;DHT22;44806;48.008;13.666;2023-04-15T04:50:42;5.90;99.90
59025;DHT22;44806;48.008;13.666;2023-04-15T04:53:11;5.90;99.90
59025;DHT22;44806;48.008;13.666;2023-04-15T04:55:38;6.00;99.90
59025;DHT22;44806;48.008;13.666;2023-04-15T04:58:05;6.00;99.90
59025;DHT22;44806;48.008;13.666;2023-04-15T05:00:31;5.90;99.90
59025;DHT22;44806;48.008;13.666;2023-04-15T05:02:58;5.90;99.90
59025;DHT22;44806;48.008;13.666;2023-04-15T05:05:25;6.00;99.90
59025;DHT22;44806;48.008;13.666;2023-04-15T05:07:52;6.00;99.90
59025;DHT22;44806;48.008;13.666;2023-04-15T05:10:20;6.00;99.90
59025;DHT22;44806;48.008;13.666;2023-04-15T05:12:47;6.00;99.90
59025;DHT22;44806;48.008;13.666;2023-04-15T05:15:15;6.00;99.90
59025;DHT22;44806;48.008;13.666;2023-04-15T05:17:41;6.00;99.90
59025;DHT22;44806;48.008;13.666;2023-04-15T05:20:09;6.10;99.90
59025;DHT22;44806;48.008;13.666;2023-04-15T05:22:36;6.10;99.90
59025;DHT22;44806;48.008;13.666;2023-04-15T05:25:04;6.10;99.90
59025;DHT22;44806;48.008;13.666;2023-04-15T05:27:32;6.10;99.90
59025;DHT22;44806;48.008;13.666;2023-04-15T05:29:59;6.10;99.90
59025;DHT22;44806;48.008;13.666;2023-04-15T05:32:26;6.10;99.90
59025;DHT22;44806;48.008;13.666;2023-04-15T05:34:53;6.20;99.90
59025;DHT22;44806;48.008;13.666;2023-04-15T05:37:20;6.20;99.90
59025;DHT22;44806;48.008;13.666;2023-04-15T05:39:47;6.20;99.90
59025;DHT22;44806;48.008;13.666;2023-04-15T05:42:14;6.10;99.90
59025;DHT22;44806;48.008;13.666;2023-04-15T05:44:42;6.10;99.90
59025;DHT22;44806;48.008;13.666;2023-04-15T05:47:09;6.20;99.90
59025;DHT22;44806;48.008;13.666;2023-04-15T05:49:36;6.10;99.90
59025;DHT22;44806;48.008;13.666;2023-04-15T05:52:03;6.10;99.90
59025;DHT22;44806;48.008;13.666;2023-04-15T05:54:30;6.10;99.90
59025;DHT22;44806;48.008;13.666;2023-04-15T05:56:57;6.10;99.90
59025;DHT22;44806;48.008;13.666;2023-04-15T05:59:24;6.20;99.90
59025;DHT22;44806;48.008;13.666;2023-04-15T06:01:53;6.20;99.90
59025;DHT22;44806;48.008;13.666;2023-04-15T06:04:19;6.20;99.90
59025;DHT22;44806;48.008;13.666;2023-04-15T06:06:47;6.30;99.90
59025;DHT22;44806;48.008;13.666;2023-04-15T06:09:14;6.20;99.90
59025;DHT22;44806;48.008;13.666;2023-04-15T06:11:41;6.20;99.90
59025;DHT22;44806;48.008;13.666;2023-04-15T06:14:08;6.10;99.90
59025;DHT22;44806;48.008;13.666;2023-04-15T06:16:35;6.20;99.90
59025;DHT22;44806;48.008;13.666;2023-04-15T06:19:03;6.20;99.90
59025;DHT22;44806;48.008;13.666;2023-04-15T06:21:30;6.20;99.90
59025;DHT22;44806;48.008;13.666;2023-04-15T06:23:58;6.10;99.90
59025;DHT22;44806;48.008;13.666;2023-04-15T06:26:26;6.10;99.90
59025;DHT22;44806;48.008;13.666;2023-04-15T06:28:52;6.00;99.90
59025;DHT22;44806;48.008;13.666;2023-04-15T06:31:20;6.10;99.90
59025;DHT22;44806;48.008;13.666;2023-04-15T06:33:47;6.00;99.90
59025;DHT22;44806;48.008;13.666;2023-04-15T06:36:15;6.00;99.90
59025;DHT22;44806;48.008;13.666;2023-04-15T06:38:42;6.00;99.90
59025;DHT22;44806;48.008;13.666;2023-04-15T06:41:09;5.90;99.90
59025;DHT22;44806;48.008;13.666;2023-04-15T06:43:36;6.00;99.90
59025;DHT22;44806;48.008;13.666;2023-04-15T06:46:03;6.00;99.90
59025;DHT22;44806;48.008;13.666;2023-04-15T06:48:30;5.90;99.90
59025;DHT22;44806;48.008;13.666;2023-04-15T06:50:57;5.90;99.90
59025;DHT22;44806;48.008;13.666;2023-04-15T06:53:25;6.00;99.90
59025;DHT22;44806;48.008;13.666;2023-04-15T06:55:52;6.00;99.90
59025;DHT22;44806;48.008;13.666;2023-04-15T06:58:20;6.00;99.90
59025;DHT22;44806;48.008;13.666;2023-04-15T07:00:47;6.00;99.90
59025;DHT22;44806;48.008;13.666;2023-04-15T07:03:14;6.00;99.90
59025;DHT22;44806;48.008;13.666;2023-04-15T07:05:41;6.10;99.90
59025;DHT22;44806;48.008;13.666;2023-04-15T07:08:08;6.20;99.90
59025;DHT22;44806;48.008;13.666;2023-04-15T07:10:36;6.10;99.90
59025;DHT22;44806;48.008;13.666;2023-04-15T07:13:03;6.20;99.90
59025;DHT22;44806;48.008;13.666;2023-04-15T07:15:31;6.10;99.90
59025;DHT22;44806;48.008;13.666;2023-04-15T07:17:58;6.20;99.90
59025;DHT22;44806;48.008;13.666;2023-04-15T07:20:25;6.20;99.90
59025;DHT22;44806;48.008;13.666;2023-04-15T07:22:52;6.30;99.90
59025;DHT22;44806;48.008;13.666;2023-04-15T07:25:19;6.30;99.90
59025;DHT22;44806;48.008;13.666;2023-04-15T07:27:48;6.20;99.90
59025;DHT22;44806;48.008;13.666;2023-04-15T07:30:15;6.20;99.90
59025;DHT22;44806;48.008;13.666;2023-04-15T07:32:42;6.30;99.90
59025;DHT22;44806;48.008;13.666;2023-04-15T07:35:09;6.30;99.90
59025;DHT22;44806;48.008;13.666;2023-04-15T07:37:36;6.30;99.90
59025;DHT22;44806;48.008;13.666;2023-04-15T07:40:03;6.20;99.90
59025;DHT22;44806;48.008;13.666;2023-04-15T07:42:32;6.20;99.90
59025;DHT22;44806;48.008;13.666;2023-04-15T07:45:00;6.20;99.90
59025;DHT22;44806;48.008;13.666;2023-04-15T07:47:27;6.30;99.90
59025;DHT22;44806;48.008;13.666;2023-04-15T07:49:54;6.30;99.90
59025;DHT22;44806;48.008;13.666;2023-04-15T07:52:21;6.30;99.90
59025;DHT22;44806;48.008;13.666;2023-04-15T07:54:48;6.30;99.90
59025;DHT22;44806;48.008;13.666;2023-04-15T07:57:15;6.30;99.90
59025;DHT22;44806;48.008;13.666;2023-04-15T07:59:42;6.20;99.90
59025;DHT22;44806;48.008;13.666;2023-04-15T08:02:11;6.20;99.90
59025;DHT22;44806;48.008;13.666;2023-04-15T08:04:38;6.20;99.90
59025;DHT22;44806;48.008;13.666;2023-04-15T08:07:05;6.20;99.90
59025;DHT22;44806;48.008;13.666;2023-04-15T08:09:32;6.20;99.90
59025;DHT22;44806;48.008;13.666;2023-04-15T08:12:00;6.20;99.90
59025;DHT22;44806;48.008;13.666;2023-04-15T08:14:27;6.20;99.90
59025;DHT22;44806;48.008;13.666;2023-04-15T08:16:54;6.20;99.90
59025;DHT22;44806;48.008;13.666;2023-04-15T08:19:23;6.20;99.90
59025;DHT22;44806;48.008;13.666;2023-04-15T08:21:50;6.30;99.90
59025;DHT22;44806;48.008;13.666;2023-04-15T08:24:17;6.30;99.90
59025;DHT22;44806;48.008;13.666;2023-04-15T08:26:44;6.20;99.90
59025;DHT22;44806;48.008;13.666;2023-04-15T08:29:11;6.20;99.90
59025;DHT22;44806;48.008;13.666;2023-04-15T08:31:38;6.30;99.90
59025;DHT22;44806;48.008;13.666;2023-04-15T08:34:05;6.10;99.90
59025;DHT22;44806;48.008;13.666;2023-04-15T08:36:34;6.20;99.90
59025;DHT22;44806;48.008;13.666;2023-04-15T08:39:01;6.10;99.90
59025;DHT22;44806;48.008;13.666;2023-04-15T08:41:36;6.00;99.90
59025;DHT22;44806;48.008;13.666;2023-04-15T08:44:05;6.00;99.90
59025;DHT22;44806;48.008;13.666;2023-04-15T08:46:32;6.10;99.90
59025;DHT22;44806;48.008;13.666;2023-04-15T08:49:03;6.00;99.90
59025;DHT22;44806;48.008;13.666;2023-04-15T08:51:30;5.90;99.90
59025;DHT22;44806;48.008;13.666;2023-04-15T08:53:59;6.00;99.90
59025;DHT22;44806;48.008;13.666;2023-04-15T08:56:30;6.00;99.90
59025;DHT22;44806;48.008;13.666;2023-04-15T08:58:58;6.00;99.90
59025;DHT22;44806;48.008;13.666;2023-04-15T09:01:25;6.00;99.90
59025;DHT22;44806;48.008;13.666;2023-04-15T09:03:53;6.00;99.90
59025;DHT22;44806;48.008;13.666;2023-04-15T09:06:20;6.00;99.90
59025;DHT22;44806;48.008;13.666;2023-04-15T09:08:48;6.20;99.90
59025;DHT22;44806;48.008;13.666;2023-04-15T09:11:17;6.20;99.90
59025;DHT22;44806;48.008;13.666;2023-04-15T09:13:44;6.20;99.90
59025;DHT22;44806;48.008;13.666;2023-04-15T09:16:12;6.30;99.90
59025;DHT22;44806;48.008;13.666;2023-04-15T09:18:39;6.30;99.90
59025;DHT22;44806;48.008;13.666;2023-04-15T09:21:07;6.30;99.90
59025;DHT22;44806;48.008;13.666;2023-04-15T09:23:36;6.30;99.90
59025;DHT22;44806;48.008;13.666;2023-04-15T09:26:04;6.30;99.90
59025;DHT22;44806;48.008;13.666;2023-04-15T09:28:40;6.30;99.90
59025;DHT22;44806;48.008;13.666;2023-04-15T09:31:07;6.20;99.90
59025;DHT22;44806;48.008;13.666;2023-04-15T09:33:34;6.20;99.90
59025;DHT22;44806;48.008;13.666;2023-04-15T09:36:03;6.30;99.90
59025;DHT22;44806;48.008;13.666;2023-04-15T09:38:31;6.40;99.90
59025;DHT22;44806;48.008;13.666;2023-04-15T09:40:58;6.30;99.90
59025;DHT22;44806;48.008;13.666;2023-04-15T09:43:38;6.40;99.90
59025;DHT22;44806;48.008;13.666;2023-04-15T09:46:05;6.40;99.90
59025;DHT22;44806;48.008;13.666;2023-04-15T09:48:32;6.40;99.90
59025;DHT22;44806;48.008;13.666;2023-04-15T09:51:00;6.50;99.90
59025;DHT22;44806;48.008;13.666;2023-04-15T09:53:27;6.50;99.90
59025;DHT22;44806;48.008;13.666;2023-04-15T09:55:55;6.50;99.90
59025;DHT22;44806;48.008;13.666;2023-04-15T09:58:24;6.40;99.90
59025;DHT22;44806;48.008;13.666;2023-04-15T10:00:54;6.50;99.90
59025;DHT22;44806;48.008;13.666;2023-04-15T10:03:23;6.50;99.90
59025;DHT22;44806;48.008;13.666;2023-04-15T10:05:51;6.50;99.90
59025;DHT22;44806;48.008;13.666;2023-04-15T10:08:20;6.60;99.90
59025;DHT22;44806;48.008;13.666;2023-04-15T10:10:48;6.60;99.90
59025;DHT22;44806;48.008;13.666;2023-04-15T10:13:18;6.60;99.90
59025;DHT22;44806;48.008;13.666;2023-04-15T10:16:05;6.60;99.90
59025;DHT22;44806;48.008;13.666;2023-04-15T10:18:34;6.60;99.90
59025;DHT22;44806;48.008;13.666;2023-04-15T10:21:04;6.60;99.90
59025;DHT22;44806;48.008;13.666;2023-04-15T10:23:33;6.70;99.90
59025;DHT22;44806;48.008;13.666;2023-04-15T10:26:00;6.60;99.90
59025;DHT22;44806;48.008;13.666;2023-04-15T10:28:28;6.70;99.90
59025;DHT22;44806;48.008;13.666;2023-04-15T10:30:55;6.80;99.90
59025;DHT22;44806;48.008;13.666;2023-04-15T10:33:24;6.80;99.90
59025;DHT22;44806;48.008;13.666;2023-04-15T10:35:55;6.80;99.90
59025;DHT22;44806;48.008;13.666;2023-04-15T10:38:35;6.80;99.90
59025;DHT22;44806;48.008;13.666;2023-04-15T10:41:17;6.80;99.90
59025;DHT22;44806;48.008;13.666;2023-04-15T10:43:48;6.70;99.90
59025;DHT22;44806;48.008;13.666;2023-04-15T10:46:20;6.70;99.90
59025;DHT22;44806;48.008;13.666;2023-04-15T10:48:51;6.80;99.90
59025;DHT22;44806;48.008;13.666;2023-04-15T10:51:27;6.70;99.90
59025;DHT22;44806;48.008;13.666;2023-04-15T10:53:58;6.50;99.90
59025;DHT22;44806;48.008;13.666;2023-04-15T10:56:27;6.40;99.90
59025;DHT22;44806;48.008;13.666;2023-04-15T10:58:54;6.50;99.90
59025;DHT22;44806;48.008;13.666;2023-04-15T11:01:21;6.60;99.90
59025;DHT22;44806;48.008;13.666;2023-04-15T11:03:50;6.50;99.90
59025;DHT22;44806;48.008;13.666;2023-04-15T11:06:17;6.50;99.90
59025;DHT22;44806;48.008;13.666;2023-04-15T11:08:55;6.60;99.90
59025;DHT22;44806;48.008;13.666;2023-04-15T11:14:25;6.80;99.90
59025;DHT22;44806;48.008;13.666;2023-04-15T11:16:52;6.90;99.90
59025;DHT22;44806;48.008;13.666;2023-04-15T11:19:20;6.90;99.90
59025;DHT22;44806;48.008;13.666;2023-04-15T11:21:47;6.90;99.90
59025;DHT22;44806;48.008;13.666;2023-04-15T11:24:23;6.90;99.90
59025;DHT22;44806;48.008;13.666;2023-04-15T11:26:56;6.90;99.90
59025;DHT22;44806;48.008;13.666;2023-04-15T11:29:28;7.00;99.90
59025;DHT22;44806;48.008;13.666;2023-04-15T11:32:03;7.10;99.90
59025;DHT22;44806;48.008;13.666;2023-04-15T11:34:32;7.10;99.90
59025;DHT22;44806;48.008;13.666;2023-04-15T11:37:03;7.00;99.90
59025;DHT22;44806;48.008;13.666;2023-04-15T11:39:30;7.10;99.90
59025;DHT22;44806;48.008;13.666;2023-04-15T11:41:57;7.10;99.90
59025;DHT22;44806;48.008;13.666;2023-04-15T11:44:24;7.10;99.90
59025;DHT22;44806;48.008;13.666;2023-04-15T11:46:50;7.10;99.90
59025;DHT22;44806;48.008;13.666;2023-04-15T11:49:28;7.10;99.90
59025;DHT22;44806;48.008;13.666;2023-04-15T11:51:56;7.10;99.90
59025;DHT22;44806;48.008;13.666;2023-04-15T11:54:24;7.10;99.90
59025;DHT22;44806;48.008;13.666;2023-04-15T11:56:51;7.20;99.90
59025;DHT22;44806;48.008;13.666;2023-04-15T11:59:19;7.20;99.90
59025;DHT22;44806;48.008;13.666;2023-04-15T12:01:46;7.20;99.90
59025;DHT22;44806;48.008;13.666;2023-04-15T12:04:14;7.30;99.90
59025;DHT22;44806;48.008;13.666;2023-04-15T12:06:43;7.20;99.90
59025;DHT22;44806;48.008;13.666;2023-04-15T12:09:12;7.20;99.90
59025;DHT22;44806;48.008;13.666;2023-04-15T12:11:42;7.20;99.90
59025;DHT22;44806;48.008;13.666;2023-04-15T12:14:12;7.20;99.90
59025;DHT22;44806;48.008;13.666;2023-04-15T12:16:43;7.20;99.90
59025;DHT22;44806;48.008;13.666;2023-04-15T12:19:13;7.20;99.90
59025;DHT22;44806;48.008;13.666;2023-04-15T12:21:43;7.30;99.90
59025;DHT22;44806;48.008;13.666;2023-04-15T12:24:12;7.10;99.90
59025;DHT22;44806;48.008;13.666;2023-04-15T12:26:43;7.00;99.90
59025;DHT22;44806;48.008;13.666;2023-04-15T12:29:11;7.10;99.90
59025;DHT22;44806;48.008;13.666;2023-04-15T12:31:46;7.10;99.90
59025;DHT22;44806;48.008;13.666;2023-04-15T12:34:14;7.20;99.90
59025;DHT22;44806;48.008;13.666;2023-04-15T12:36:41;7.20;99.90
59025;DHT22;44806;48.008;13.666;2023-04-15T12:39:08;7.10;99.90
59025;DHT22;44806;48.008;13.666;2023-04-15T12:41:36;7.10;99.90
59025;DHT22;44806;48.008;13.666;2023-04-15T12:44:03;7.10;99.90
59025;DHT22;44806;48.008;13.666;2023-04-15T12:46:31;7.10;99.90
59025;DHT22;44806;48.008;13.666;2023-04-15T12:48:58;7.10;99.90
59025;DHT22;44806;48.008;13.666;2023-04-15T12:51:24;7.10;99.90
59025;DHT22;44806;48.008;13.666;2023-04-15T12:53:52;7.10;99.90
59025;DHT22;44806;48.008;13.666;2023-04-15T12:56:20;7.10;99.90
59025;DHT22;44806;48.008;13.666;2023-04-15T12:58:49;7.10;99.90
59025;DHT22;44806;48.008;13.666;2023-04-15T13:01:17;7.00;99.90
59025;DHT22;44806;48.008;13.666;2023-04-15T13:03:44;7.00;99.90
59025;DHT22;44806;48.008;13.666;2023-04-15T13:06:11;7.00;99.90
59025;DHT22;44806;48.008;13.666;2023-04-15T13:08:38;6.90;99.90
59025;DHT22;44806;48.008;13.666;2023-04-15T13:11:05;6.90;99.90
59025;DHT22;44806;48.008;13.666;2023-04-15T13:13:32;6.90;99.90
59025;DHT22;44806;48.008;13.666;2023-04-15T13:16:00;7.00;99.90
59025;DHT22;44806;48.008;13.666;2023-04-15T13:18:27;6.90;99.90
59025;DHT22;44806;48.008;13.666;2023-04-15T13:20:55;6.90;99.90
59025;DHT22;44806;48.008;13.666;2023-04-15T13:23:22;6.90;99.90
59025;DHT22;44806;48.008;13.666;2023-04-15T13:25:49;6.80;99.90
59025;DHT22;44806;48.008;13.666;2023-04-15T13:28:16;6.90;99.90
59025;DHT22;44806;48.008;13.666;2023-04-15T13:30:43;6.90;99.90
59025;DHT22;44806;48.008;13.666;2023-04-15T13:33:12;7.00;99.90
59025;DHT22;44806;48.008;13.666;2023-04-15T13:35:42;7.10;99.90
59025;DHT22;44806;48.008;13.666;2023-04-15T13:38:09;7.10;99.90
59025;DHT22;44806;48.008;13.666;2023-04-15T13:40:36;7.00;99.90
59025;DHT22;44806;48.008;13.666;2023-04-15T13:43:03;7.00;99.90
59025;DHT22;44806;48.008;13.666;2023-04-15T13:45:30;7.00;99.90
59025;DHT22;44806;48.008;13.666;2023-04-15T13:47:57;7.10;99.90
59025;DHT22;44806;48.008;13.666;2023-04-15T13:50:27;7.20;99.90
59025;DHT22;44806;48.008;13.666;2023-04-15T13:52:54;7.10;99.90
59025;DHT22;44806;48.008;13.666;2023-04-15T13:55:21;7.20;99.90
59025;DHT22;44806;48.008;13.666;2023-04-15T13:57:48;7.20;99.90
59025;DHT22;44806;48.008;13.666;2023-04-15T14:00:15;7.30;99.90
59025;DHT22;44806;48.008;13.666;2023-04-15T14:02:42;7.40;99.90
59025;DHT22;44806;48.008;13.666;2023-04-15T14:05:10;7.30;99.90
59025;DHT22;44806;48.008;13.666;2023-04-15T14:07:38;7.30;99.90
59025;DHT22;44806;48.008;13.666;2023-04-15T14:10:06;7.40;99.90
59025;DHT22;44806;48.008;13.666;2023-04-15T14:12:33;7.40;99.90
59025;DHT22;44806;48.008;13.666;2023-04-15T14:15:01;7.30;99.90
59025;DHT22;44806;48.008;13.666;2023-04-15T14:17:28;7.30;99.90
59025;DHT22;44806;48.008;13.666;2023-04-15T14:19:55;7.40;99.90
59025;DHT22;44806;48.008;13.666;2023-04-15T14:22:21;7.40;99.90
59025;DHT22;44806;48.008;13.666;2023-04-15T14:24:50;7.30;99.90
59025;DHT22;44806;48.008;13.666;2023-04-15T14:27:20;7.20;99.90
59025;DHT22;44806;48.008;13.666;2023-04-15T14:29:47;7.10;99.90
59025;DHT22;44806;48.008;13.666;2023-04-15T14:32:14;7.20;99.90
59025;DHT22;44806;48.008;13.666;2023-04-15T14:34:41;7.20;99.90
59025;DHT22;44806;48.008;13.666;2023-04-15T14:37:08;7.20;99.90
59025;DHT22;44806;48.008;13.666;2023-04-15T14:39:35;7.20;99.90
59025;DHT22;44806;48.008;13.666;2023-04-15T14:42:03;7.20;99.90
59025;DHT22;44806;48.008;13.666;2023-04-15T14:44:33;7.10;99.90
59025;DHT22;44806;48.008;13.666;2023-04-15T14:47:00;7.00;99.90
59025;DHT22;44806;48.008;13.666;2023-04-15T14:49:26;7.10;99.90
59025;DHT22;44806;48.008;13.666;2023-04-15T14:51:56;7.10;99.90
59025;DHT22;44806;48.008;13.666;2023-04-15T14:54:23;7.00;99.90
59025;DHT22;44806;48.008;13.666;2023-04-15T14:56:51;6.90;99.90
59025;DHT22;44806;48.008;13.666;2023-04-15T14:59:19;7.00;99.90
59025;DHT22;44806;48.008;13.666;2023-04-15T15:01:46;7.00;99.90
59025;DHT22;44806;48.008;13.666;2023-04-15T15:04:13;7.00;99.90
59025;DHT22;44806;48.008;13.666;2023-04-15T15:06:40;7.00;99.90
59025;DHT22;44806;48.008;13.666;2023-04-15T15:09:08;7.00;99.90
59025;DHT22;44806;48.008;13.666;2023-04-15T15:11:36;7.10;99.90
59025;DHT22;44806;48.008;13.666;2023-04-15T15:14:03;7.10;99.90
59025;DHT22;44806;48.008;13.666;2023-04-15T15:16:33;7.10;99.90
59025;DHT22;44806;48.008;13.666;2023-04-15T15:19:00;7.10;99.90
59025;DHT22;44806;48.008;13.666;2023-04-15T15:21:27;7.10;99.90
59025;DHT22;44806;48.008;13.666;2023-04-15T15:23:56;7.10;99.90
59025;DHT22;44806;48.008;13.666;2023-04-15T15:26:25;7.00;99.90
59025;DHT22;44806;48.008;13.666;2023-04-15T15:28:53;7.00;99.90
59025;DHT22;44806;48.008;13.666;2023-04-15T15:31:20;7.10;99.90
59025;DHT22;44806;48.008;13.666;2023-04-15T15:33:49;7.10;99.90
59025;DHT22;44806;48.008;13.666;2023-04-15T15:36:17;7.10;99.90